sensor_id;sensor_type;location;lat;lon;timestamp;P1;durP1;ratioP1;P2;durP2;ratioP2
9072;SDS011;4572;41.642;25.370;2023-02-15T00:01:11;25.73;;;14.67;;
9072;SDS011;4572;41.642;25.370;2023-02-15T00:03:36;28.60;;;16.20;;
9072;SDS011;4572;41.642;25.370;2023-02-15T00:06:03;33.53;;;17.50;;
9072;SDS011;4572;41.642;25.370;2023-02-15T00:08:29;31.57;;;18.43;;
9072;SDS011;4572;41.642;25.370;2023-02-15T00:11:03;31.00;;;18.00;;
9072;SDS011;4572;41.642;25.370;2023-02-15T00:13:29;37.30;;;17.83;;
9072;SDS011;4572;41.642;25.370;2023-02-15T00:15:59;30.50;;;17.77;;
9072;SDS011;4572;41.642;25.370;2023-02-15T00:18:25;34.27;;;17.90;;
9072;SDS011;4572;41.642;25.370;2023-02-15T00:20:51;28.87;;;17.40;;
9072;SDS011;4572;41.642;25.370;2023-02-15T00:23:16;30.37;;;16.50;;
9072;SDS011;4572;41.642;25.370;2023-02-15T00:25:42;30.03;;;16.97;;
9072;SDS011;4572;41.642;25.370;2023-02-15T00:28:07;28.63;;;17.93;;
9072;SDS011;4572;41.642;25.370;2023-02-15T00:30:33;30.90;;;16.90;;
9072;SDS011;4572;41.642;25.370;2023-02-15T00:32:58;29.67;;;16.67;;
9072;SDS011;4572;41.642;25.370;2023-02-15T00:35:23;23.97;;;15.27;;
9072;SDS011;4572;41.642;25.370;2023-02-15T00:37:49;24.23;;;13.83;;
9072;SDS011;4572;41.642;25.370;2023-02-15T00:40:14;24.13;;;13.83;;
9072;SDS011;4572;41.642;25.370;2023-02-15T00:42:40;23.20;;;14.47;;
9072;SDS011;4572;41.642;25.370;2023-02-15T00:45:06;22.33;;;13.57;;
9072;SDS011;4572;41.642;25.370;2023-02-15T00:47:31;19.50;;;12.43;;
9072;SDS011;4572;41.642;25.370;2023-02-15T00:49:57;22.03;;;13.17;;
9072;SDS011;4572;41.642;25.370;2023-02-15T00:52:22;21.70;;;13.00;;
9072;SDS011;4572;41.642;25.370;2023-02-15T00:54:48;23.30;;;13.63;;
9072;SDS011;4572;41.642;25.370;2023-02-15T00:57:13;25.30;;;13.43;;
9072;SDS011;4572;41.642;25.370;2023-02-15T00:59:38;23.63;;;14.40;;
9072;SDS011;4572;41.642;25.370;2023-02-15T01:02:04;23.13;;;13.47;;
9072;SDS011;4572;41.642;25.370;2023-02-15T01:04:29;23.60;;;13.27;;
9072;SDS011;4572;41.642;25.370;2023-02-15T01:06:55;23.03;;;12.57;;
9072;SDS011;4572;41.642;25.370;2023-02-15T01:09:20;19.03;;;13.13;;
9072;SDS011;4572;41.642;25.370;2023-02-15T01:11:45;24.53;;;13.93;;
9072;SDS011;4572;41.642;25.370;2023-02-15T01:14:11;22.60;;;12.83;;
9072;SDS011;4572;41.642;25.370;2023-02-15T01:16:38;21.03;;;13.23;;
9072;SDS011;4572;41.642;25.370;2023-02-15T01:19:03;21.03;;;12.30;;
9072;SDS011;4572;41.642;25.370;2023-02-15T01:21:29;22.60;;;11.97;;
9072;SDS011;4572;41.642;25.370;2023-02-15T01:23:54;19.13;;;11.63;;
9072;SDS011;4572;41.642;25.370;2023-02-15T01:26:20;23.40;;;13.67;;
9072;SDS011;4572;41.642;25.370;2023-02-15T01:28:46;21.23;;;12.90;;
9072;SDS011;4572;41.642;25.370;2023-02-15T01:31:12;20.70;;;12.30;;
9072;SDS011;4572;41.642;25.370;2023-02-15T01:33:40;23.33;;;12.43;;
9072;SDS011;4572;41.642;25.370;2023-02-15T01:36:05;20.00;;;12.13;;
9072;SDS011;4572;41.642;25.370;2023-02-15T01:38:31;24.97;;;13.07;;
9072;SDS011;4572;41.642;25.370;2023-02-15T01:40:57;23.37;;;12.20;;
9072;SDS011;4572;41.642;25.370;2023-02-15T01:43:41;18.50;;;11.50;;
9072;SDS011;4572;41.642;25.370;2023-02-15T01:46:09;20.83;;;11.00;;
9072;SDS011;4572;41.642;25.370;2023-02-15T01:48:36;22.57;;;12.33;;
9072;SDS011;4572;41.642;25.370;2023-02-15T01:51:08;20.67;;;11.87;;
9072;SDS011;4572;41.642;25.370;2023-02-15T01:53:34;22.60;;;13.03;;
9072;SDS011;4572;41.642;25.370;2023-02-15T01:56:22;33.80;;;16.63;;
9072;SDS011;4572;41.642;25.370;2023-02-15T01:58:49;34.00;;;16.33;;
9072;SDS011;4572;41.642;25.370;2023-02-15T02:01:17;22.63;;;13.57;;
9072;SDS011;4572;41.642;25.370;2023-02-15T02:06:15;26.90;;;12.13;;
9072;SDS011;4572;41.642;25.370;2023-02-15T02:08:41;22.00;;;12.30;;
9072;SDS011;4572;41.642;25.370;2023-02-15T02:11:11;23.97;;;13.67;;
9072;SDS011;4572;41.642;25.370;2023-02-15T02:13:38;20.50;;;12.23;;
9072;SDS011;4572;41.642;25.370;2023-02-15T02:16:09;20.67;;;11.70;;
9072;SDS011;4572;41.642;25.370;2023-02-15T02:18:49;19.27;;;11.60;;
9072;SDS011;4572;41.642;25.370;2023-02-15T02:27:19;22.50;;;11.37;;
9072;SDS011;4572;41.642;25.370;2023-02-15T02:35:22;19.73;;;10.00;;
9072;SDS011;4572;41.642;25.370;2023-02-15T02:37:59;16.33;;;10.63;;
9072;SDS011;4572;41.642;25.370;2023-02-15T02:43:33;16.70;;;10.63;;
9072;SDS011;4572;41.642;25.370;2023-02-15T02:46:08;22.30;;;10.80;;
9072;SDS011;4572;41.642;25.370;2023-02-15T02:48:37;18.20;;;9.77;;
9072;SDS011;4572;41.642;25.370;2023-02-15T02:51:02;18.63;;;10.37;;
9072;SDS011;4572;41.642;25.370;2023-02-15T02:53:28;18.23;;;9.00;;
9072;SDS011;4572;41.642;25.370;2023-02-15T02:55:56;17.73;;;9.23;;
9072;SDS011;4572;41.642;25.370;2023-02-15T02:58:46;17.63;;;9.70;;
9072;SDS011;4572;41.642;25.370;2023-02-15T03:01:13;15.83;;;9.93;;
9072;SDS011;4572;41.642;25.370;2023-02-15T03:03:43;15.83;;;10.67;;
9072;SDS011;4572;41.642;25.370;2023-02-15T03:06:12;15.27;;;9.87;;
9072;SDS011;4572;41.642;25.370;2023-02-15T03:08:45;15.23;;;9.33;;
9072;SDS011;4572;41.642;25.370;2023-02-15T03:11:13;21.90;;;11.83;;
9072;SDS011;4572;41.642;25.370;2023-02-15T03:13:39;22.80;;;12.37;;
9072;SDS011;4572;41.642;25.370;2023-02-15T03:16:04;18.83;;;11.23;;
9072;SDS011;4572;41.642;25.370;2023-02-15T03:18:51;20.07;;;10.83;;
9072;SDS011;4572;41.642;25.370;2023-02-15T03:21:49;15.57;;;8.93;;
9072;SDS011;4572;41.642;25.370;2023-02-15T03:27:06;14.73;;;9.50;;
9072;SDS011;4572;41.642;25.370;2023-02-15T03:29:33;16.20;;;9.37;;
9072;SDS011;4572;41.642;25.370;2023-02-15T03:32:00;17.43;;;10.03;;
9072;SDS011;4572;41.642;25.370;2023-02-15T03:34:28;18.23;;;10.10;;
9072;SDS011;4572;41.642;25.370;2023-02-15T03:39:59;16.80;;;9.93;;
9072;SDS011;4572;41.642;25.370;2023-02-15T03:42:48;17.07;;;10.17;;
9072;SDS011;4572;41.642;25.370;2023-02-15T03:45:24;15.80;;;9.10;;
9072;SDS011;4572;41.642;25.370;2023-02-15T03:47:51;17.27;;;9.63;;
9072;SDS011;4572;41.642;25.370;2023-02-15T03:50:18;15.20;;;9.30;;
9072;SDS011;4572;41.642;25.370;2023-02-15T03:53:05;17.77;;;9.90;;
9072;SDS011;4572;41.642;25.370;2023-02-15T03:55:33;17.83;;;9.63;;
9072;SDS011;4572;41.642;25.370;2023-02-15T03:57:59;16.90;;;9.90;;
9072;SDS011;4572;41.642;25.370;2023-02-15T04:00:59;18.77;;;10.70;;
9072;SDS011;4572;41.642;25.370;2023-02-15T04:03:56;19.47;;;10.07;;
9072;SDS011;4572;41.642;25.370;2023-02-15T04:06:24;17.87;;;9.83;;
9072;SDS011;4572;41.642;25.370;2023-02-15T04:08:49;20.70;;;10.27;;
9072;SDS011;4572;41.642;25.370;2023-02-15T04:11:33;17.23;;;10.07;;
9072;SDS011;4572;41.642;25.370;2023-02-15T04:13:59;14.50;;;9.73;;
9072;SDS011;4572;41.642;25.370;2023-02-15T04:16:44;17.13;;;10.27;;
9072;SDS011;4572;41.642;25.370;2023-02-15T04:19:10;19.53;;;9.90;;
9072;SDS011;4572;41.642;25.370;2023-02-15T04:21:54;19.30;;;10.63;;
9072;SDS011;4572;41.642;25.370;2023-02-15T04:24:37;20.70;;;11.00;;
9072;SDS011;4572;41.642;25.370;2023-02-15T04:27:21;24.50;;;12.40;;
9072;SDS011;4572;41.642;25.370;2023-02-15T04:29:47;30.03;;;14.13;;
9072;SDS011;4572;41.642;25.370;2023-02-15T04:32:14;25.87;;;14.43;;
9072;SDS011;4572;41.642;25.370;2023-02-15T04:34:40;22.73;;;12.90;;
9072;SDS011;4572;41.642;25.370;2023-02-15T04:37:05;23.13;;;12.70;;
9072;SDS011;4572;41.642;25.370;2023-02-15T04:39:31;38.13;;;18.73;;
9072;SDS011;4572;41.642;25.370;2023-02-15T04:41:57;44.40;;;19.63;;
9072;SDS011;4572;41.642;25.370;2023-02-15T04:44:22;23.87;;;14.13;;
9072;SDS011;4572;41.642;25.370;2023-02-15T04:46:48;23.57;;;12.93;;
9072;SDS011;4572;41.642;25.370;2023-02-15T04:49:13;24.13;;;12.70;;
9072;SDS011;4572;41.642;25.370;2023-02-15T04:51:39;18.47;;;11.43;;
9072;SDS011;4572;41.642;25.370;2023-02-15T04:54:05;22.50;;;11.97;;
9072;SDS011;4572;41.642;25.370;2023-02-15T04:56:30;22.27;;;12.23;;
9072;SDS011;4572;41.642;25.370;2023-02-15T04:58:58;19.67;;;11.37;;
9072;SDS011;4572;41.642;25.370;2023-02-15T05:01:23;19.83;;;11.30;;
9072;SDS011;4572;41.642;25.370;2023-02-15T05:03:49;22.73;;;12.50;;
9072;SDS011;4572;41.642;25.370;2023-02-15T05:06:14;21.70;;;11.73;;
9072;SDS011;4572;41.642;25.370;2023-02-15T05:08:40;19.97;;;12.33;;
9072;SDS011;4572;41.642;25.370;2023-02-15T05:11:05;21.80;;;12.10;;
9072;SDS011;4572;41.642;25.370;2023-02-15T05:13:31;31.90;;;13.60;;
9072;SDS011;4572;41.642;25.370;2023-02-15T05:15:56;30.07;;;15.00;;
9072;SDS011;4572;41.642;25.370;2023-02-15T05:18:22;30.00;;;16.73;;
9072;SDS011;4572;41.642;25.370;2023-02-15T05:20:47;26.83;;;15.70;;
9072;SDS011;4572;41.642;25.370;2023-02-15T05:23:13;23.13;;;12.73;;
9072;SDS011;4572;41.642;25.370;2023-02-15T05:25:39;22.57;;;13.10;;
9072;SDS011;4572;41.642;25.370;2023-02-15T05:28:23;27.47;;;13.40;;
9072;SDS011;4572;41.642;25.370;2023-02-15T05:30:52;21.90;;;12.47;;
9072;SDS011;4572;41.642;25.370;2023-02-15T05:33:29;22.77;;;13.63;;
9072;SDS011;4572;41.642;25.370;2023-02-15T05:35:54;26.00;;;12.70;;
9072;SDS011;4572;41.642;25.370;2023-02-15T05:38:20;27.90;;;12.80;;
9072;SDS011;4572;41.642;25.370;2023-02-15T05:40:45;28.63;;;13.87;;
9072;SDS011;4572;41.642;25.370;2023-02-15T05:43:11;31.27;;;13.70;;
9072;SDS011;4572;41.642;25.370;2023-02-15T05:45:37;28.27;;;14.57;;
9072;SDS011;4572;41.642;25.370;2023-02-15T05:48:02;31.43;;;15.23;;
9072;SDS011;4572;41.642;25.370;2023-02-15T05:50:28;22.80;;;13.63;;
9072;SDS011;4572;41.642;25.370;2023-02-15T05:52:54;32.60;;;16.70;;
9072;SDS011;4572;41.642;25.370;2023-02-15T05:55:19;35.27;;;17.77;;
9072;SDS011;4572;41.642;25.370;2023-02-15T05:57:45;44.07;;;18.53;;
9072;SDS011;4572;41.642;25.370;2023-02-15T06:00:11;34.87;;;17.80;;
9072;SDS011;4572;41.642;25.370;2023-02-15T06:02:37;39.60;;;17.63;;
9072;SDS011;4572;41.642;25.370;2023-02-15T06:05:03;30.17;;;16.60;;
9072;SDS011;4572;41.642;25.370;2023-02-15T06:07:29;33.80;;;17.10;;
9072;SDS011;4572;41.642;25.370;2023-02-15T06:09:55;35.40;;;19.20;;
9072;SDS011;4572;41.642;25.370;2023-02-15T06:12:20;31.80;;;17.87;;
9072;SDS011;4572;41.642;25.370;2023-02-15T06:14:46;36.10;;;17.00;;
9072;SDS011;4572;41.642;25.370;2023-02-15T06:17:11;30.00;;;17.47;;
9072;SDS011;4572;41.642;25.370;2023-02-15T06:19:37;31.33;;;18.07;;
9072;SDS011;4572;41.642;25.370;2023-02-15T06:22:02;31.97;;;19.33;;
9072;SDS011;4572;41.642;25.370;2023-02-15T06:24:28;38.60;;;18.60;;
9072;SDS011;4572;41.642;25.370;2023-02-15T06:26:53;32.47;;;18.03;;
9072;SDS011;4572;41.642;25.370;2023-02-15T06:29:19;38.37;;;18.57;;
9072;SDS011;4572;41.642;25.370;2023-02-15T06:31:44;31.70;;;18.50;;
9072;SDS011;4572;41.642;25.370;2023-02-15T06:34:10;37.57;;;18.53;;
9072;SDS011;4572;41.642;25.370;2023-02-15T06:36:35;33.73;;;18.93;;
9072;SDS011;4572;41.642;25.370;2023-02-15T06:39:01;32.80;;;17.80;;
9072;SDS011;4572;41.642;25.370;2023-02-15T06:41:28;43.93;;;18.13;;
9072;SDS011;4572;41.642;25.370;2023-02-15T06:43:53;40.67;;;18.70;;
9072;SDS011;4572;41.642;25.370;2023-02-15T06:46:19;34.00;;;17.67;;
9072;SDS011;4572;41.642;25.370;2023-02-15T06:48:44;37.37;;;17.83;;
9072;SDS011;4572;41.642;25.370;2023-02-15T06:51:09;19.60;;;7.63;;
9072;SDS011;4572;41.642;25.370;2023-02-15T06:53:35;18.90;;;11.03;;
9072;SDS011;4572;41.642;25.370;2023-02-15T06:56:01;18.40;;;9.87;;
9072;SDS011;4572;41.642;25.370;2023-02-15T06:58:28;17.57;;;9.53;;
9072;SDS011;4572;41.642;25.370;2023-02-15T07:00:53;16.00;;;9.23;;
9072;SDS011;4572;41.642;25.370;2023-02-15T07:03:19;13.13;;;6.00;;
9072;SDS011;4572;41.642;25.370;2023-02-15T07:05:44;22.77;;;10.83;;
9072;SDS011;4572;41.642;25.370;2023-02-15T07:08:10;28.43;;;13.87;;
9072;SDS011;4572;41.642;25.370;2023-02-15T07:10:36;28.63;;;11.33;;
9072;SDS011;4572;41.642;25.370;2023-02-15T07:13:01;18.83;;;11.20;;
9072;SDS011;4572;41.642;25.370;2023-02-15T07:15:27;16.77;;;8.67;;
9072;SDS011;4572;41.642;25.370;2023-02-15T07:17:52;15.00;;;8.07;;
9072;SDS011;4572;41.642;25.370;2023-02-15T07:20:19;21.50;;;9.73;;
9072;SDS011;4572;41.642;25.370;2023-02-15T07:22:46;34.63;;;11.27;;
9072;SDS011;4572;41.642;25.370;2023-02-15T07:25:13;25.40;;;9.77;;
9072;SDS011;4572;41.642;25.370;2023-02-15T07:27:38;18.73;;;10.93;;
9072;SDS011;4572;41.642;25.370;2023-02-15T07:30:05;36.67;;;11.50;;
9072;SDS011;4572;41.642;25.370;2023-02-15T07:32:33;14.90;;;6.97;;
9072;SDS011;4572;41.642;25.370;2023-02-15T07:34:59;11.37;;;7.43;;
9072;SDS011;4572;41.642;25.370;2023-02-15T07:37:25;19.73;;;10.43;;
9072;SDS011;4572;41.642;25.370;2023-02-15T07:39:51;23.77;;;9.87;;
9072;SDS011;4572;41.642;25.370;2023-02-15T07:42:17;18.13;;;9.83;;
9072;SDS011;4572;41.642;25.370;2023-02-15T07:44:44;23.20;;;11.67;;
9072;SDS011;4572;41.642;25.370;2023-02-15T07:47:10;36.80;;;14.63;;
9072;SDS011;4572;41.642;25.370;2023-02-15T07:49:37;23.97;;;11.67;;
9072;SDS011;4572;41.642;25.370;2023-02-15T07:52:03;9.73;;;5.50;;
9072;SDS011;4572;41.642;25.370;2023-02-15T07:54:30;19.93;;;11.60;;
9072;SDS011;4572;41.642;25.370;2023-02-15T07:56:55;15.33;;;7.93;;
9072;SDS011;4572;41.642;25.370;2023-02-15T07:59:21;22.90;;;13.27;;
9072;SDS011;4572;41.642;25.370;2023-02-15T08:01:46;26.20;;;13.70;;
9072;SDS011;4572;41.642;25.370;2023-02-15T08:04:12;12.40;;;7.40;;
9072;SDS011;4572;41.642;25.370;2023-02-15T08:06:37;9.77;;;5.63;;
9072;SDS011;4572;41.642;25.370;2023-02-15T08:09:04;23.80;;;13.20;;
9072;SDS011;4572;41.642;25.370;2023-02-15T08:11:32;21.07;;;10.57;;
9072;SDS011;4572;41.642;25.370;2023-02-15T08:16:44;20.30;;;8.97;;
9072;SDS011;4572;41.642;25.370;2023-02-15T08:19:15;27.37;;;12.33;;
9072;SDS011;4572;41.642;25.370;2023-02-15T08:21:49;24.33;;;13.00;;
9072;SDS011;4572;41.642;25.370;2023-02-15T08:24:15;13.27;;;8.53;;
9072;SDS011;4572;41.642;25.370;2023-02-15T08:26:42;28.03;;;12.40;;
9072;SDS011;4572;41.642;25.370;2023-02-15T08:29:10;18.00;;;9.53;;
9072;SDS011;4572;41.642;25.370;2023-02-15T08:31:36;9.37;;;5.50;;
9072;SDS011;4572;41.642;25.370;2023-02-15T08:34:02;21.50;;;10.93;;
9072;SDS011;4572;41.642;25.370;2023-02-15T08:36:29;20.17;;;11.67;;
9072;SDS011;4572;41.642;25.370;2023-02-15T08:39:00;26.17;;;14.97;;
9072;SDS011;4572;41.642;25.370;2023-02-15T08:41:28;16.10;;;9.60;;
9072;SDS011;4572;41.642;25.370;2023-02-15T08:44:02;35.07;;;16.00;;
9072;SDS011;4572;41.642;25.370;2023-02-15T08:46:33;26.40;;;13.87;;
9072;SDS011;4572;41.642;25.370;2023-02-15T08:49:02;30.93;;;16.30;;
9072;SDS011;4572;41.642;25.370;2023-02-15T08:51:29;29.00;;;16.10;;
9072;SDS011;4572;41.642;25.370;2023-02-15T08:53:57;47.30;;;21.17;;
9072;SDS011;4572;41.642;25.370;2023-02-15T08:56:25;32.03;;;16.50;;
9072;SDS011;4572;41.642;25.370;2023-02-15T08:58:52;34.43;;;17.20;;
9072;SDS011;4572;41.642;25.370;2023-02-15T09:01:20;36.97;;;16.97;;
9072;SDS011;4572;41.642;25.370;2023-02-15T09:03:47;33.23;;;15.70;;
9072;SDS011;4572;41.642;25.370;2023-02-15T09:06:14;38.13;;;13.57;;
9072;SDS011;4572;41.642;25.370;2023-02-15T09:08:40;28.30;;;17.53;;
9072;SDS011;4572;41.642;25.370;2023-02-15T09:13:36;21.43;;;12.97;;
9072;SDS011;4572;41.642;25.370;2023-02-15T09:16:02;27.93;;;15.10;;
9072;SDS011;4572;41.642;25.370;2023-02-15T09:18:34;27.23;;;16.07;;
9072;SDS011;4572;41.642;25.370;2023-02-15T09:21:12;25.63;;;15.03;;
9072;SDS011;4572;41.642;25.370;2023-02-15T09:23:39;25.10;;;13.03;;
9072;SDS011;4572;41.642;25.370;2023-02-15T09:26:06;19.30;;;12.07;;
9072;SDS011;4572;41.642;25.370;2023-02-15T09:28:34;25.43;;;13.90;;
9072;SDS011;4572;41.642;25.370;2023-02-15T09:31:07;24.90;;;12.43;;
9072;SDS011;4572;41.642;25.370;2023-02-15T09:33:42;23.60;;;13.23;;
9072;SDS011;4572;41.642;25.370;2023-02-15T09:36:16;22.50;;;12.87;;
9072;SDS011;4572;41.642;25.370;2023-02-15T10:08:50;23.87;;;14.17;;
9072;SDS011;4572;41.642;25.370;2023-02-15T10:22:09;23.03;;;13.03;;
9072;SDS011;4572;41.642;25.370;2023-02-15T10:27:11;18.47;;;12.67;;
9072;SDS011;4572;41.642;25.370;2023-02-15T10:29:39;18.57;;;12.67;;
9072;SDS011;4572;41.642;25.370;2023-02-15T10:35:05;17.57;;;11.63;;
9072;SDS011;4572;41.642;25.370;2023-02-15T10:40:40;19.97;;;14.70;;
9072;SDS011;4572;41.642;25.370;2023-02-15T10:51:16;24.27;;;14.47;;
9072;SDS011;4572;41.642;25.370;2023-02-15T10:56:55;19.23;;;11.40;;
9072;SDS011;4572;41.642;25.370;2023-02-15T10:59:47;18.20;;;12.70;;
9072;SDS011;4572;41.642;25.370;2023-02-15T11:07:50;17.97;;;10.40;;
9072;SDS011;4572;41.642;25.370;2023-02-15T11:12:56;25.73;;;11.00;;
9072;SDS011;4572;41.642;25.370;2023-02-15T11:18:14;18.13;;;10.77;;
9072;SDS011;4572;41.642;25.370;2023-02-15T11:20:43;19.03;;;11.17;;
9072;SDS011;4572;41.642;25.370;2023-02-15T11:23:15;19.43;;;10.83;;
9072;SDS011;4572;41.642;25.370;2023-02-15T11:25:43;13.83;;;10.57;;
9072;SDS011;4572;41.642;25.370;2023-02-15T11:28:31;18.57;;;11.23;;
9072;SDS011;4572;41.642;25.370;2023-02-15T11:31:00;16.77;;;11.70;;
9072;SDS011;4572;41.642;25.370;2023-02-15T11:33:29;20.13;;;11.30;;
9072;SDS011;4572;41.642;25.370;2023-02-15T11:36:01;16.77;;;12.13;;
9072;SDS011;4572;41.642;25.370;2023-02-15T11:38:33;21.93;;;11.70;;
9072;SDS011;4572;41.642;25.370;2023-02-15T11:41:07;20.77;;;11.00;;
9072;SDS011;4572;41.642;25.370;2023-02-15T11:43:43;17.83;;;10.60;;
9072;SDS011;4572;41.642;25.370;2023-02-15T11:46:10;23.23;;;11.73;;
9072;SDS011;4572;41.642;25.370;2023-02-15T11:48:36;20.17;;;10.83;;
9072;SDS011;4572;41.642;25.370;2023-02-15T11:51:02;21.73;;;13.03;;
9072;SDS011;4572;41.642;25.370;2023-02-15T11:53:29;17.37;;;11.23;;
9072;SDS011;4572;41.642;25.370;2023-02-15T11:55:57;27.10;;;13.20;;
9072;SDS011;4572;41.642;25.370;2023-02-15T12:03:54;15.23;;;11.07;;
9072;SDS011;4572;41.642;25.370;2023-02-15T12:11:37;20.73;;;11.77;;
9072;SDS011;4572;41.642;25.370;2023-02-15T12:14:05;21.33;;;13.30;;
9072;SDS011;4572;41.642;25.370;2023-02-15T12:16:44;21.27;;;12.53;;
9072;SDS011;4572;41.642;25.370;2023-02-15T12:19:59;21.27;;;12.37;;
9072;SDS011;4572;41.642;25.370;2023-02-15T12:22:03;24.40;;;13.00;;
9072;SDS011;4572;41.642;25.370;2023-02-15T12:24:30;21.73;;;12.53;;
9072;SDS011;4572;41.642;25.370;2023-02-15T12:27:00;21.33;;;11.97;;
9072;SDS011;4572;41.642;25.370;2023-02-15T12:29:34;19.17;;;13.20;;
9072;SDS011;4572;41.642;25.370;2023-02-15T12:32:05;23.90;;;12.17;;
9072;SDS011;4572;41.642;25.370;2023-02-15T12:34:37;25.90;;;12.57;;
9072;SDS011;4572;41.642;25.370;2023-02-15T12:37:16;20.70;;;12.60;;
9072;SDS011;4572;41.642;25.370;2023-02-15T12:39:56;19.80;;;12.17;;
9072;SDS011;4572;41.642;25.370;2023-02-15T12:42:24;16.43;;;10.30;;
9072;SDS011;4572;41.642;25.370;2023-02-15T12:44:57;21.63;;;14.93;;
9072;SDS011;4572;41.642;25.370;2023-02-15T12:47:25;24.43;;;13.53;;
9072;SDS011;4572;41.642;25.370;2023-02-15T12:52:46;30.37;;;19.27;;
9072;SDS011;4572;41.642;25.370;2023-02-15T12:55:26;41.73;;;23.90;;
9072;SDS011;4572;41.642;25.370;2023-02-15T13:00:43;57.10;;;38.83;;
9072;SDS011;4572;41.642;25.370;2023-02-15T13:03:20;45.50;;;31.43;;
9072;SDS011;4572;41.642;25.370;2023-02-15T13:05:53;37.87;;;24.47;;
9072;SDS011;4572;41.642;25.370;2023-02-15T13:08:21;20.30;;;13.57;;
9072;SDS011;4572;41.642;25.370;2023-02-15T13:11:00;24.80;;;15.27;;
9072;SDS011;4572;41.642;25.370;2023-02-15T13:13:29;35.07;;;25.47;;
9072;SDS011;4572;41.642;25.370;2023-02-15T13:15:58;20.00;;;13.80;;
9072;SDS011;4572;41.642;25.370;2023-02-15T13:18:30;20.53;;;14.43;;
9072;SDS011;4572;41.642;25.370;2023-02-15T13:20:58;26.67;;;15.43;;
9072;SDS011;4572;41.642;25.370;2023-02-15T13:23:29;22.67;;;13.43;;
9072;SDS011;4572;41.642;25.370;2023-02-15T13:25:55;19.67;;;14.13;;
9072;SDS011;4572;41.642;25.370;2023-02-15T13:28:25;23.30;;;15.27;;
9072;SDS011;4572;41.642;25.370;2023-02-15T13:31:04;18.73;;;13.90;;
9072;SDS011;4572;41.642;25.370;2023-02-15T13:33:42;49.20;;;31.70;;
9072;SDS011;4572;41.642;25.370;2023-02-15T13:41:40;26.90;;;15.27;;
9072;SDS011;4572;41.642;25.370;2023-02-15T13:46:44;26.97;;;13.47;;
9072;SDS011;4572;41.642;25.370;2023-02-15T13:49:23;23.50;;;11.83;;
9072;SDS011;4572;41.642;25.370;2023-02-15T13:52:19;33.53;;;14.60;;
9072;SDS011;4572;41.642;25.370;2023-02-15T14:08:46;20.13;;;12.33;;
9072;SDS011;4572;41.642;25.370;2023-02-15T14:11:26;18.83;;;11.67;;
9072;SDS011;4572;41.642;25.370;2023-02-15T14:19:43;29.30;;;15.83;;
9072;SDS011;4572;41.642;25.370;2023-02-15T14:30:24;22.77;;;14.97;;
9072;SDS011;4572;41.642;25.370;2023-02-15T14:32:53;33.33;;;18.40;;
9072;SDS011;4572;41.642;25.370;2023-02-15T14:35:27;26.07;;;15.23;;
9072;SDS011;4572;41.642;25.370;2023-02-15T14:43:32;26.80;;;16.03;;
9072;SDS011;4572;41.642;25.370;2023-02-15T14:48:53;30.53;;;15.67;;
9072;SDS011;4572;41.642;25.370;2023-02-15T14:54:05;18.47;;;14.63;;
9072;SDS011;4572;41.642;25.370;2023-02-15T14:56:32;20.60;;;13.37;;
9072;SDS011;4572;41.642;25.370;2023-02-15T14:58:58;26.73;;;17.37;;
9072;SDS011;4572;41.642;25.370;2023-02-15T15:01:29;17.57;;;12.53;;
9072;SDS011;4572;41.642;25.370;2023-02-15T15:04:04;25.13;;;15.63;;
9072;SDS011;4572;41.642;25.370;2023-02-15T15:06:34;29.53;;;15.43;;
9072;SDS011;4572;41.642;25.370;2023-02-15T15:09:20;32.87;;;16.40;;
9072;SDS011;4572;41.642;25.370;2023-02-15T15:11:50;25.00;;;15.97;;
9072;SDS011;4572;41.642;25.370;2023-02-15T15:14:38;24.20;;;15.10;;
9072;SDS011;4572;41.642;25.370;2023-02-15T15:17:03;21.40;;;13.27;;
9072;SDS011;4572;41.642;25.370;2023-02-15T15:49:34;35.53;;;15.67;;
9072;SDS011;4572;41.642;25.370;2023-02-15T15:52:07;56.23;;;17.17;;
9072;SDS011;4572;41.642;25.370;2023-02-15T15:54:38;32.27;;;16.27;;
9072;SDS011;4572;41.642;25.370;2023-02-15T15:57:04;34.20;;;16.60;;
9072;SDS011;4572;41.642;25.370;2023-02-15T15:59:32;40.50;;;24.07;;
9072;SDS011;4572;41.642;25.370;2023-02-15T16:02:05;48.30;;;23.03;;
9072;SDS011;4572;41.642;25.370;2023-02-15T16:04:32;40.37;;;23.67;;
9072;SDS011;4572;41.642;25.370;2023-02-15T16:12:28;59.33;;;31.33;;
9072;SDS011;4572;41.642;25.370;2023-02-15T16:14:55;49.57;;;26.93;;
9072;SDS011;4572;41.642;25.370;2023-02-15T16:17:22;40.80;;;20.93;;
9072;SDS011;4572;41.642;25.370;2023-02-15T16:19:49;35.00;;;18.83;;
9072;SDS011;4572;41.642;25.370;2023-02-15T16:22:18;41.73;;;24.43;;
9072;SDS011;4572;41.642;25.370;2023-02-15T16:27:41;40.40;;;24.90;;
9072;SDS011;4572;41.642;25.370;2023-02-15T16:30:18;46.70;;;25.13;;
9072;SDS011;4572;41.642;25.370;2023-02-15T16:32:54;40.83;;;25.57;;
9072;SDS011;4572;41.642;25.370;2023-02-15T16:35:22;49.60;;;26.57;;
9072;SDS011;4572;41.642;25.370;2023-02-15T16:37:48;36.73;;;21.23;;
9072;SDS011;4572;41.642;25.370;2023-02-15T16:42:49;30.37;;;20.10;;
9072;SDS011;4572;41.642;25.370;2023-02-15T16:45:16;32.00;;;20.90;;
9072;SDS011;4572;41.642;25.370;2023-02-15T16:47:44;46.27;;;24.83;;
9072;SDS011;4572;41.642;25.370;2023-02-15T16:50:23;52.27;;;25.57;;
9072;SDS011;4572;41.642;25.370;2023-02-15T16:52:51;59.10;;;29.73;;
9072;SDS011;4572;41.642;25.370;2023-02-15T16:55:22;52.97;;;29.40;;
9072;SDS011;4572;41.642;25.370;2023-02-15T16:57:49;32.63;;;20.73;;
9072;SDS011;4572;41.642;25.370;2023-02-15T17:00:19;30.07;;;19.27;;
9072;SDS011;4572;41.642;25.370;2023-02-15T17:03:01;27.07;;;17.87;;
9072;SDS011;4572;41.642;25.370;2023-02-15T17:05:33;59.03;;;33.30;;
9072;SDS011;4572;41.642;25.370;2023-02-15T17:13:23;33.73;;;19.67;;
9072;SDS011;4572;41.642;25.370;2023-02-15T17:18:28;35.50;;;21.03;;
9072;SDS011;4572;41.642;25.370;2023-02-15T17:20:56;43.13;;;24.60;;
9072;SDS011;4572;41.642;25.370;2023-02-15T17:25:56;61.60;;;34.53;;
9072;SDS011;4572;41.642;25.370;2023-02-15T17:28:27;53.50;;;31.50;;
9072;SDS011;4572;41.642;25.370;2023-02-15T17:30:54;47.87;;;28.53;;
9072;SDS011;4572;41.642;25.370;2023-02-15T17:33:23;51.90;;;28.30;;
9072;SDS011;4572;41.642;25.370;2023-02-15T17:38:40;64.93;;;35.90;;
9072;SDS011;4572;41.642;25.370;2023-02-15T17:41:06;74.87;;;39.43;;
9072;SDS011;4572;41.642;25.370;2023-02-15T17:43:32;54.00;;;28.23;;
9072;SDS011;4572;41.642;25.370;2023-02-15T17:45:57;37.43;;;23.40;;
9072;SDS011;4572;41.642;25.370;2023-02-15T17:50:58;36.33;;;16.93;;
9072;SDS011;4572;41.642;25.370;2023-02-15T17:53:25;26.83;;;17.60;;
9072;SDS011;4572;41.642;25.370;2023-02-15T17:55:51;27.33;;;16.63;;
9072;SDS011;4572;41.642;25.370;2023-02-15T17:58:17;27.23;;;16.83;;
9072;SDS011;4572;41.642;25.370;2023-02-15T18:00:44;31.17;;;20.50;;
9072;SDS011;4572;41.642;25.370;2023-02-15T18:06:19;43.03;;;26.97;;
9072;SDS011;4572;41.642;25.370;2023-02-15T18:09:03;44.60;;;26.00;;
9072;SDS011;4572;41.642;25.370;2023-02-15T18:11:47;48.63;;;26.97;;
9072;SDS011;4572;41.642;25.370;2023-02-15T18:14:14;46.50;;;27.60;;
9072;SDS011;4572;41.642;25.370;2023-02-15T18:16:41;38.87;;;21.30;;
9072;SDS011;4572;41.642;25.370;2023-02-15T18:19:12;53.03;;;22.47;;
9072;SDS011;4572;41.642;25.370;2023-02-15T18:21:59;41.83;;;23.00;;
9072;SDS011;4572;41.642;25.370;2023-02-15T18:24:25;47.57;;;25.23;;
9072;SDS011;4572;41.642;25.370;2023-02-15T18:26:51;39.30;;;22.23;;
9072;SDS011;4572;41.642;25.370;2023-02-15T18:29:18;37.80;;;22.10;;
9072;SDS011;4572;41.642;25.370;2023-02-15T18:31:44;31.17;;;19.37;;